sensor_id;sensor_type;location;lat;lon;timestamp;P1;durP1;ratioP1;P2;durP2;ratioP2
20653;SDS011;21083;50.898;4.902;2023-05-10T00:02:00;14.55;;;7.22;;
20653;SDS011;21083;50.898;4.902;2023-05-10T00:04:27;14.52;;;7.20;;
20653;SDS011;21083;50.898;4.902;2023-05-10T00:06:54;16.50;;;7.82;;
20653;SDS011;21083;50.898;4.902;2023-05-10T00:09:21;16.55;;;6.40;;
20653;SDS011;21083;50.898;4.902;2023-05-10T00:11:48;15.20;;;7.63;;
20653;SDS011;21083;50.898;4.902;2023-05-10T00:14:16;14.02;;;6.32;;
20653;SDS011;21083;50.898;4.902;2023-05-10T00:16:43;19.25;;;7.15;;
20653;SDS011;21083;50.898;4.902;2023-05-10T00:19:10;15.15;;;7.07;;
20653;SDS011;21083;50.898;4.902;2023-05-10T00:21:37;15.25;;;6.35;;
20653;SDS011;21083;50.898;4.902;2023-05-10T00:24:05;14.82;;;5.45;;
20653;SDS011;21083;50.898;4.902;2023-05-10T00:26:32;15.98;;;7.50;;
20653;SDS011;21083;50.898;4.902;2023-05-10T00:28:59;18.85;;;7.40;;
20653;SDS011;21083;50.898;4.902;2023-05-10T00:31:27;16.33;;;6.53;;
20653;SDS011;21083;50.898;4.902;2023-05-10T00:33:54;16.52;;;6.72;;
20653;SDS011;21083;50.898;4.902;2023-05-10T00:36:21;16.63;;;6.88;;
20653;SDS011;21083;50.898;4.902;2023-05-10T00:38:48;19.80;;;6.82;;
20653;SDS011;21083;50.898;4.902;2023-05-10T00:41:15;17.65;;;7.25;;
20653;SDS011;21083;50.898;4.902;2023-05-10T00:43:42;14.70;;;7.20;;
20653;SDS011;21083;50.898;4.902;2023-05-10T00:46:09;15.77;;;7.65;;
20653;SDS011;21083;50.898;4.902;2023-05-10T00:48:38;17.17;;;7.28;;
20653;SDS011;21083;50.898;4.902;2023-05-10T00:51:05;17.83;;;7.30;;
20653;SDS011;21083;50.898;4.902;2023-05-10T00:53:32;17.65;;;7.35;;
20653;SDS011;21083;50.898;4.902;2023-05-10T00:56:01;17.15;;;7.30;;
20653;SDS011;21083;50.898;4.902;2023-05-10T00:58:28;20.55;;;7.88;;
20653;SDS011;21083;50.898;4.902;2023-05-10T01:00:56;19.20;;;8.32;;
20653;SDS011;21083;50.898;4.902;2023-05-10T01:03:24;20.25;;;8.63;;
20653;SDS011;21083;50.898;4.902;2023-05-10T01:05:52;23.00;;;8.65;;
20653;SDS011;21083;50.898;4.902;2023-05-10T01:08:20;18.27;;;8.50;;
20653;SDS011;21083;50.898;4.902;2023-05-10T01:10:47;23.85;;;9.00;;
20653;SDS011;21083;50.898;4.902;2023-05-10T01:13:16;18.58;;;7.97;;
20653;SDS011;21083;50.898;4.902;2023-05-10T01:15:54;22.48;;;8.90;;
20653;SDS011;21083;50.898;4.902;2023-05-10T01:18:21;16.67;;;8.90;;
20653;SDS011;21083;50.898;4.902;2023-05-10T01:20:51;22.77;;;8.48;;
20653;SDS011;21083;50.898;4.902;2023-05-10T01:23:44;23.15;;;9.20;;
20653;SDS011;21083;50.898;4.902;2023-05-10T01:26:33;19.55;;;9.38;;
20653;SDS011;21083;50.898;4.902;2023-05-10T01:29:42;21.35;;;10.15;;
20653;SDS011;21083;50.898;4.902;2023-05-10T01:32:29;20.98;;;9.30;;
20653;SDS011;21083;50.898;4.902;2023-05-10T01:35:02;25.25;;;9.63;;
20653;SDS011;21083;50.898;4.902;2023-05-10T01:37:36;20.90;;;9.60;;
20653;SDS011;21083;50.898;4.902;2023-05-10T01:40:08;20.58;;;9.80;;
20653;SDS011;21083;50.898;4.902;2023-05-10T01:42:45;19.80;;;9.45;;
20653;SDS011;21083;50.898;4.902;2023-05-10T01:45:18;25.08;;;9.80;;
20653;SDS011;21083;50.898;4.902;2023-05-10T01:47:56;19.33;;;9.23;;
20653;SDS011;21083;50.898;4.902;2023-05-10T01:50:30;23.80;;;10.27;;
20653;SDS011;21083;50.898;4.902;2023-05-10T01:52:59;19.85;;;8.75;;
20653;SDS011;21083;50.898;4.902;2023-05-10T01:55:29;22.58;;;10.43;;
20653;SDS011;21083;50.898;4.902;2023-05-10T01:58:02;20.38;;;9.80;;
20653;SDS011;21083;50.898;4.902;2023-05-10T02:00:30;25.75;;;11.10;;
20653;SDS011;21083;50.898;4.902;2023-05-10T02:03:01;32.63;;;10.80;;
20653;SDS011;21083;50.898;4.902;2023-05-10T02:05:31;26.17;;;10.50;;
20653;SDS011;21083;50.898;4.902;2023-05-10T02:08:01;19.63;;;9.82;;
20653;SDS011;21083;50.898;4.902;2023-05-10T02:10:30;31.83;;;11.35;;
20653;SDS011;21083;50.898;4.902;2023-05-10T02:12:59;22.08;;;9.77;;
20653;SDS011;21083;50.898;4.902;2023-05-10T02:15:28;21.58;;;11.13;;
20653;SDS011;21083;50.898;4.902;2023-05-10T02:17:56;27.02;;;11.15;;
20653;SDS011;21083;50.898;4.902;2023-05-10T02:20:27;27.98;;;11.45;;
20653;SDS011;21083;50.898;4.902;2023-05-10T02:22:55;23.52;;;10.20;;
20653;SDS011;21083;50.898;4.902;2023-05-10T02:25:23;24.85;;;11.50;;
20653;SDS011;21083;50.898;4.902;2023-05-10T02:27:53;21.27;;;11.32;;
20653;SDS011;21083;50.898;4.902;2023-05-10T02:30:22;28.67;;;11.77;;
20653;SDS011;21083;50.898;4.902;2023-05-10T02:32:50;25.33;;;10.70;;
20653;SDS011;21083;50.898;4.902;2023-05-10T02:35:18;24.73;;;11.93;;
20653;SDS011;21083;50.898;4.902;2023-05-10T02:37:47;26.60;;;11.57;;
20653;SDS011;21083;50.898;4.902;2023-05-10T02:40:15;32.13;;;12.27;;
20653;SDS011;21083;50.898;4.902;2023-05-10T02:42:43;28.52;;;11.68;;
20653;SDS011;21083;50.898;4.902;2023-05-10T02:45:12;26.77;;;13.00;;
20653;SDS011;21083;50.898;4.902;2023-05-10T02:47:44;24.33;;;11.32;;
20653;SDS011;21083;50.898;4.902;2023-05-10T02:50:11;26.88;;;13.02;;
20653;SDS011;21083;50.898;4.902;2023-05-10T02:52:39;31.08;;;12.88;;
20653;SDS011;21083;50.898;4.902;2023-05-10T02:55:11;27.65;;;11.15;;
20653;SDS011;21083;50.898;4.902;2023-05-10T02:57:42;27.05;;;11.95;;
20653;SDS011;21083;50.898;4.902;2023-05-10T03:00:12;31.63;;;11.68;;
20653;SDS011;21083;50.898;4.902;2023-05-10T03:02:40;27.25;;;12.27;;
20653;SDS011;21083;50.898;4.902;2023-05-10T03:05:07;27.73;;;12.80;;
20653;SDS011;21083;50.898;4.902;2023-05-10T03:07:34;29.05;;;13.15;;
20653;SDS011;21083;50.898;4.902;2023-05-10T03:10:01;26.10;;;12.63;;
20653;SDS011;21083;50.898;4.902;2023-05-10T03:12:33;27.02;;;11.75;;
20653;SDS011;21083;50.898;4.902;2023-05-10T03:15:13;24.08;;;12.10;;
20653;SDS011;21083;50.898;4.902;2023-05-10T03:17:55;23.40;;;11.98;;
20653;SDS011;21083;50.898;4.902;2023-05-10T03:20:37;30.83;;;12.68;;
20653;SDS011;21083;50.898;4.902;2023-05-10T03:23:11;25.27;;;11.85;;
20653;SDS011;21083;50.898;4.902;2023-05-10T03:25:39;26.75;;;11.90;;
20653;SDS011;21083;50.898;4.902;2023-05-10T03:28:10;24.30;;;11.48;;
20653;SDS011;21083;50.898;4.902;2023-05-10T03:30:38;27.95;;;12.07;;
20653;SDS011;21083;50.898;4.902;2023-05-10T03:33:07;22.50;;;11.57;;
20653;SDS011;21083;50.898;4.902;2023-05-10T03:35:34;25.63;;;12.52;;
20653;SDS011;21083;50.898;4.902;2023-05-10T03:38:01;27.75;;;11.52;;
20653;SDS011;21083;50.898;4.902;2023-05-10T03:40:28;30.05;;;12.77;;
20653;SDS011;21083;50.898;4.902;2023-05-10T03:42:57;29.45;;;12.20;;
20653;SDS011;21083;50.898;4.902;2023-05-10T03:45:25;28.65;;;12.70;;
20653;SDS011;21083;50.898;4.902;2023-05-10T03:47:53;23.08;;;11.63;;
20653;SDS011;21083;50.898;4.902;2023-05-10T03:50:20;23.35;;;11.90;;
20653;SDS011;21083;50.898;4.902;2023-05-10T03:52:47;26.60;;;12.05;;
20653;SDS011;21083;50.898;4.902;2023-05-10T03:55:14;25.38;;;12.10;;
20653;SDS011;21083;50.898;4.902;2023-05-10T03:57:41;24.77;;;11.40;;
20653;SDS011;21083;50.898;4.902;2023-05-10T04:00:09;25.30;;;11.13;;
20653;SDS011;21083;50.898;4.902;2023-05-10T04:02:38;25.85;;;11.45;;
20653;SDS011;21083;50.898;4.902;2023-05-10T04:05:05;20.58;;;10.18;;
20653;SDS011;21083;50.898;4.902;2023-05-10T04:07:32;19.65;;;9.88;;
20653;SDS011;21083;50.898;4.902;2023-05-10T04:09:59;18.65;;;9.70;;
20653;SDS011;21083;50.898;4.902;2023-05-10T04:12:26;19.23;;;7.57;;
20653;SDS011;21083;50.898;4.902;2023-05-10T04:14:53;15.68;;;6.80;;
20653;SDS011;21083;50.898;4.902;2023-05-10T04:17:20;15.77;;;6.75;;
20653;SDS011;21083;50.898;4.902;2023-05-10T04:19:48;15.25;;;6.47;;
20653;SDS011;21083;50.898;4.902;2023-05-10T04:22:18;24.20;;;6.75;;
20653;SDS011;21083;50.898;4.902;2023-05-10T04:24:45;16.80;;;7.45;;
20653;SDS011;21083;50.898;4.902;2023-05-10T04:27:12;17.67;;;7.47;;
20653;SDS011;21083;50.898;4.902;2023-05-10T04:29:39;15.73;;;7.93;;
20653;SDS011;21083;50.898;4.902;2023-05-10T04:32:06;20.77;;;8.23;;
20653;SDS011;21083;50.898;4.902;2023-05-10T04:34:35;20.40;;;9.48;;
20653;SDS011;21083;50.898;4.902;2023-05-10T04:37:03;19.02;;;8.93;;
20653;SDS011;21083;50.898;4.902;2023-05-10T04:39:31;25.73;;;11.10;;
20653;SDS011;21083;50.898;4.902;2023-05-10T04:41:58;24.10;;;11.70;;
20653;SDS011;21083;50.898;4.902;2023-05-10T04:44:25;27.13;;;12.75;;
20653;SDS011;21083;50.898;4.902;2023-05-10T04:46:52;27.55;;;12.48;;
20653;SDS011;21083;50.898;4.902;2023-05-10T04:49:19;29.80;;;12.80;;
20653;SDS011;21083;50.898;4.902;2023-05-10T04:51:46;27.55;;;12.88;;
20653;SDS011;21083;50.898;4.902;2023-05-10T04:54:15;27.65;;;12.73;;
20653;SDS011;21083;50.898;4.902;2023-05-10T04:56:42;31.05;;;13.50;;
20653;SDS011;21083;50.898;4.902;2023-05-10T04:59:09;33.90;;;14.60;;
20653;SDS011;21083;50.898;4.902;2023-05-10T05:01:36;33.55;;;15.75;;
20653;SDS011;21083;50.898;4.902;2023-05-10T05:04:03;35.15;;;14.98;;
20653;SDS011;21083;50.898;4.902;2023-05-10T05:06:30;31.80;;;14.10;;
20653;SDS011;21083;50.898;4.902;2023-05-10T05:08:57;31.33;;;14.93;;
20653;SDS011;21083;50.898;4.902;2023-05-10T05:11:26;29.92;;;14.43;;
20653;SDS011;21083;50.898;4.902;2023-05-10T05:13:53;31.45;;;15.68;;
20653;SDS011;21083;50.898;4.902;2023-05-10T05:16:20;32.90;;;15.65;;
20653;SDS011;21083;50.898;4.902;2023-05-10T05:18:47;36.85;;;16.50;;
20653;SDS011;21083;50.898;4.902;2023-05-10T05:21:14;36.00;;;16.60;;
20653;SDS011;21083;50.898;4.902;2023-05-10T05:23:42;35.90;;;17.08;;
20653;SDS011;21083;50.898;4.902;2023-05-10T05:26:09;38.60;;;17.02;;
20653;SDS011;21083;50.898;4.902;2023-05-10T05:28:37;44.97;;;19.27;;
20653;SDS011;21083;50.898;4.902;2023-05-10T05:31:05;46.25;;;20.02;;
20653;SDS011;21083;50.898;4.902;2023-05-10T05:33:33;46.97;;;21.25;;
20653;SDS011;21083;50.898;4.902;2023-05-10T05:36:00;48.50;;;22.13;;
20653;SDS011;21083;50.898;4.902;2023-05-10T05:38:27;56.55;;;22.35;;
20653;SDS011;21083;50.898;4.902;2023-05-10T05:40:54;52.97;;;22.70;;
20653;SDS011;21083;50.898;4.902;2023-05-10T05:43:21;52.78;;;24.25;;
20653;SDS011;21083;50.898;4.902;2023-05-10T05:45:51;49.92;;;22.73;;
20653;SDS011;21083;50.898;4.902;2023-05-10T05:48:18;53.42;;;23.73;;
20653;SDS011;21083;50.898;4.902;2023-05-10T05:50:45;47.30;;;22.17;;
20653;SDS011;21083;50.898;4.902;2023-05-10T05:53:12;52.35;;;22.80;;
20653;SDS011;21083;50.898;4.902;2023-05-10T05:55:39;52.30;;;21.50;;
20653;SDS011;21083;50.898;4.902;2023-05-10T05:58:06;48.25;;;22.02;;
20653;SDS011;21083;50.898;4.902;2023-05-10T06:00:33;46.40;;;21.23;;
20653;SDS011;21083;50.898;4.902;2023-05-10T06:03:02;43.80;;;20.70;;
20653;SDS011;21083;50.898;4.902;2023-05-10T06:05:29;44.05;;;18.75;;
20653;SDS011;21083;50.898;4.902;2023-05-10T06:07:56;42.38;;;18.73;;
20653;SDS011;21083;50.898;4.902;2023-05-10T06:10:26;39.75;;;18.85;;
20653;SDS011;21083;50.898;4.902;2023-05-10T06:12:53;40.65;;;18.77;;
20653;SDS011;21083;50.898;4.902;2023-05-10T06:15:20;41.13;;;19.25;;
20653;SDS011;21083;50.898;4.902;2023-05-10T06:17:47;41.28;;;19.10;;
20653;SDS011;21083;50.898;4.902;2023-05-10T06:20:15;41.10;;;18.65;;
20653;SDS011;21083;50.898;4.902;2023-05-10T06:22:43;37.47;;;17.88;;
20653;SDS011;21083;50.898;4.902;2023-05-10T06:25:10;43.03;;;19.27;;
20653;SDS011;21083;50.898;4.902;2023-05-10T06:27:37;36.55;;;17.35;;
20653;SDS011;21083;50.898;4.902;2023-05-10T06:30:05;34.60;;;17.10;;
20653;SDS011;21083;50.898;4.902;2023-05-10T06:32:33;34.38;;;17.25;;
20653;SDS011;21083;50.898;4.902;2023-05-10T06:35:00;35.15;;;18.20;;
20653;SDS011;21083;50.898;4.902;2023-05-10T06:37:29;33.97;;;16.88;;
20653;SDS011;21083;50.898;4.902;2023-05-10T06:39:56;37.25;;;17.58;;
20653;SDS011;21083;50.898;4.902;2023-05-10T06:42:23;35.75;;;16.73;;
20653;SDS011;21083;50.898;4.902;2023-05-10T06:44:50;34.88;;;17.20;;
20653;SDS011;21083;50.898;4.902;2023-05-10T06:47:17;34.72;;;16.58;;
20653;SDS011;21083;50.898;4.902;2023-05-10T06:49:44;36.65;;;16.45;;
20653;SDS011;21083;50.898;4.902;2023-05-10T06:52:11;31.55;;;16.67;;
20653;SDS011;21083;50.898;4.902;2023-05-10T06:54:39;33.28;;;16.95;;
20653;SDS011;21083;50.898;4.902;2023-05-10T06:57:06;34.38;;;17.10;;
20653;SDS011;21083;50.898;4.902;2023-05-10T06:59:33;36.65;;;16.77;;
20653;SDS011;21083;50.898;4.902;2023-05-10T07:02:01;33.92;;;16.10;;
20653;SDS011;21083;50.898;4.902;2023-05-10T07:04:28;31.40;;;15.98;;
20653;SDS011;21083;50.898;4.902;2023-05-10T07:06:56;34.65;;;17.80;;
20653;SDS011;21083;50.898;4.902;2023-05-10T07:09:23;33.67;;;16.30;;
20653;SDS011;21083;50.898;4.902;2023-05-10T07:11:51;35.67;;;17.02;;
20653;SDS011;21083;50.898;4.902;2023-05-10T07:14:18;33.05;;;15.93;;
20653;SDS011;21083;50.898;4.902;2023-05-10T07:16:45;33.10;;;16.35;;
20653;SDS011;21083;50.898;4.902;2023-05-10T07:19:12;37.45;;;17.27;;
20653;SDS011;21083;50.898;4.902;2023-05-10T07:21:39;32.90;;;16.35;;
20653;SDS011;21083;50.898;4.902;2023-05-10T07:24:08;29.40;;;14.55;;
20653;SDS011;21083;50.898;4.902;2023-05-10T07:26:35;23.55;;;9.38;;
20653;SDS011;21083;50.898;4.902;2023-05-10T07:29:03;15.15;;;7.95;;
20653;SDS011;21083;50.898;4.902;2023-05-10T07:31:30;13.27;;;6.10;;
20653;SDS011;21083;50.898;4.902;2023-05-10T07:33:57;13.40;;;6.03;;
20653;SDS011;21083;50.898;4.902;2023-05-10T07:36:24;11.05;;;4.90;;
20653;SDS011;21083;50.898;4.902;2023-05-10T07:38:51;12.70;;;4.90;;
20653;SDS011;21083;50.898;4.902;2023-05-10T07:41:18;10.55;;;3.58;;
20653;SDS011;21083;50.898;4.902;2023-05-10T07:43:46;9.88;;;3.33;;
20653;SDS011;21083;50.898;4.902;2023-05-10T07:46:14;8.10;;;3.08;;
20653;SDS011;21083;50.898;4.902;2023-05-10T07:48:41;7.28;;;2.90;;
20653;SDS011;21083;50.898;4.902;2023-05-10T07:51:08;13.55;;;3.67;;
20653;SDS011;21083;50.898;4.902;2023-05-10T07:53:35;9.25;;;3.45;;
20653;SDS011;21083;50.898;4.902;2023-05-10T07:58:50;10.57;;;4.00;;
20653;SDS011;21083;50.898;4.902;2023-05-10T08:01:18;9.68;;;4.38;;
20653;SDS011;21083;50.898;4.902;2023-05-10T08:03:45;10.38;;;4.25;;
20653;SDS011;21083;50.898;4.902;2023-05-10T08:06:13;12.10;;;4.63;;
20653;SDS011;21083;50.898;4.902;2023-05-10T08:08:41;11.38;;;4.88;;
20653;SDS011;21083;50.898;4.902;2023-05-10T08:11:08;11.15;;;4.75;;
20653;SDS011;21083;50.898;4.902;2023-05-10T08:13:35;11.82;;;4.45;;
20653;SDS011;21083;50.898;4.902;2023-05-10T08:16:02;11.38;;;4.68;;
20653;SDS011;21083;50.898;4.902;2023-05-10T08:18:31;12.88;;;4.57;;
20653;SDS011;21083;50.898;4.902;2023-05-10T08:20:58;12.70;;;5.28;;
20653;SDS011;21083;50.898;4.902;2023-05-10T08:23:24;16.23;;;4.63;;
20653;SDS011;21083;50.898;4.902;2023-05-10T08:25:52;12.15;;;4.68;;
20653;SDS011;21083;50.898;4.902;2023-05-10T08:28:19;12.55;;;4.28;;
20653;SDS011;21083;50.898;4.902;2023-05-10T08:30:45;12.63;;;3.88;;
20653;SDS011;21083;50.898;4.902;2023-05-10T08:33:12;13.02;;;3.78;;
20653;SDS011;21083;50.898;4.902;2023-05-10T08:35:41;8.40;;;3.38;;
20653;SDS011;21083;50.898;4.902;2023-05-10T08:38:08;9.80;;;4.22;;
20653;SDS011;21083;50.898;4.902;2023-05-10T08:40:36;10.07;;;3.55;;
20653;SDS011;21083;50.898;4.902;2023-05-10T08:43:04;9.20;;;3.92;;
20653;SDS011;21083;50.898;4.902;2023-05-10T08:45:32;12.73;;;4.25;;
20653;SDS011;21083;50.898;4.902;2023-05-10T08:48:03;10.60;;;4.28;;
20653;SDS011;21083;50.898;4.902;2023-05-10T08:50:32;15.25;;;5.75;;
20653;SDS011;21083;50.898;4.902;2023-05-10T08:53:04;12.15;;;5.53;;
20653;SDS011;21083;50.898;4.902;2023-05-10T08:55:32;13.88;;;6.03;;
20653;SDS011;21083;50.898;4.902;2023-05-10T08:58:01;15.90;;;6.38;;
20653;SDS011;21083;50.898;4.902;2023-05-10T09:00:29;16.65;;;7.10;;
20653;SDS011;21083;50.898;4.902;2023-05-10T09:02:56;18.98;;;8.15;;
20653;SDS011;21083;50.898;4.902;2023-05-10T09:05:24;20.20;;;8.50;;
20653;SDS011;21083;50.898;4.902;2023-05-10T09:07:51;17.55;;;7.72;;
20653;SDS011;21083;50.898;4.902;2023-05-10T09:10:20;21.73;;;8.43;;
20653;SDS011;21083;50.898;4.902;2023-05-10T09:12:47;19.67;;;8.65;;
20653;SDS011;21083;50.898;4.902;2023-05-10T09:15:15;21.55;;;8.48;;
20653;SDS011;21083;50.898;4.902;2023-05-10T09:17:44;19.75;;;8.93;;
20653;SDS011;21083;50.898;4.902;2023-05-10T09:20:11;23.85;;;8.63;;
20653;SDS011;21083;50.898;4.902;2023-05-10T09:22:39;19.20;;;8.27;;
20653;SDS011;21083;50.898;4.902;2023-05-10T09:25:06;17.80;;;7.82;;
20653;SDS011;21083;50.898;4.902;2023-05-10T09:27:38;17.80;;;8.15;;
20653;SDS011;21083;50.898;4.902;2023-05-10T09:30:06;23.23;;;8.30;;
20653;SDS011;21083;50.898;4.902;2023-05-10T09:32:37;15.57;;;7.72;;
20653;SDS011;21083;50.898;4.902;2023-05-10T09:35:06;18.85;;;8.50;;
20653;SDS011;21083;50.898;4.902;2023-05-10T09:37:33;19.85;;;7.15;;
20653;SDS011;21083;50.898;4.902;2023-05-10T09:40:00;18.90;;;6.80;;
20653;SDS011;21083;50.898;4.902;2023-05-10T09:42:32;17.27;;;6.95;;
20653;SDS011;21083;50.898;4.902;2023-05-10T09:45:02;17.10;;;7.10;;
20653;SDS011;21083;50.898;4.902;2023-05-10T09:47:31;12.95;;;5.93;;
20653;SDS011;21083;50.898;4.902;2023-05-10T09:49:59;13.10;;;6.15;;
20653;SDS011;21083;50.898;4.902;2023-05-10T09:52:29;14.73;;;5.90;;
20653;SDS011;21083;50.898;4.902;2023-05-10T09:54:57;12.10;;;5.45;;
20653;SDS011;21083;50.898;4.902;2023-05-10T09:57:24;14.55;;;5.60;;
20653;SDS011;21083;50.898;4.902;2023-05-10T09:59:52;13.88;;;6.05;;
20653;SDS011;21083;50.898;4.902;2023-05-10T10:02:21;13.43;;;5.28;;
20653;SDS011;21083;50.898;4.902;2023-05-10T10:04:55;15.18;;;6.13;;
20653;SDS011;21083;50.898;4.902;2023-05-10T10:07:22;15.52;;;5.25;;
20653;SDS011;21083;50.898;4.902;2023-05-10T10:09:51;10.98;;;4.78;;
20653;SDS011;21083;50.898;4.902;2023-05-10T10:12:19;12.63;;;5.38;;
20653;SDS011;21083;50.898;4.902;2023-05-10T10:14:46;12.23;;;4.40;;
20653;SDS011;21083;50.898;4.902;2023-05-10T10:17:14;10.18;;;4.40;;
20653;SDS011;21083;50.898;4.902;2023-05-10T10:19:43;11.73;;;5.30;;
20653;SDS011;21083;50.898;4.902;2023-05-10T10:22:11;10.07;;;3.72;;
20653;SDS011;21083;50.898;4.902;2023-05-10T10:24:38;13.27;;;4.85;;
20653;SDS011;21083;50.898;4.902;2023-05-10T10:27:09;10.52;;;4.32;;
20653;SDS011;21083;50.898;4.902;2023-05-10T10:29:47;8.13;;;3.85;;
20653;SDS011;21083;50.898;4.902;2023-05-10T10:32:22;8.30;;;3.78;;
20653;SDS011;21083;50.898;4.902;2023-05-10T10:34:55;9.32;;;3.45;;
20653;SDS011;21083;50.898;4.902;2023-05-10T10:37:23;9.10;;;3.42;;
20653;SDS011;21083;50.898;4.902;2023-05-10T10:42:49;7.13;;;2.78;;
20653;SDS011;21083;50.898;4.902;2023-05-10T10:45:16;6.82;;;2.80;;
20653;SDS011;21083;50.898;4.902;2023-05-10T10:47:43;7.28;;;2.75;;
20653;SDS011;21083;50.898;4.902;2023-05-10T10:50:12;8.45;;;2.80;;
20653;SDS011;21083;50.898;4.902;2023-05-10T10:52:41;5.38;;;2.55;;
20653;SDS011;21083;50.898;4.902;2023-05-10T10:55:09;6.55;;;2.50;;
20653;SDS011;21083;50.898;4.902;2023-05-10T10:57:44;5.57;;;2.15;;
20653;SDS011;21083;50.898;4.902;2023-05-10T11:00:26;8.15;;;2.38;;
20653;SDS011;21083;50.898;4.902;2023-05-10T11:02:56;6.03;;;2.13;;
20653;SDS011;21083;50.898;4.902;2023-05-10T11:05:36;4.78;;;2.00;;
20653;SDS011;21083;50.898;4.902;2023-05-10T11:08:09;6.22;;;2.10;;
20653;SDS011;21083;50.898;4.902;2023-05-10T11:10:38;5.05;;;1.77;;
20653;SDS011;21083;50.898;4.902;2023-05-10T11:13:06;4.82;;;2.20;;
20653;SDS011;21083;50.898;4.902;2023-05-10T11:15:35;6.07;;;1.92;;
20653;SDS011;21083;50.898;4.902;2023-05-10T11:18:16;4.88;;;1.98;;
20653;SDS011;21083;50.898;4.902;2023-05-10T11:20:46;3.58;;;1.67;;
20653;SDS011;21083;50.898;4.902;2023-05-10T11:23:17;3.67;;;1.60;;
20653;SDS011;21083;50.898;4.902;2023-05-10T11:25:45;4.28;;;1.88;;
20653;SDS011;21083;50.898;4.902;2023-05-10T11:28:13;4.88;;;1.67;;
20653;SDS011;21083;50.898;4.902;2023-05-10T11:30:43;3.28;;;1.67;;
20653;SDS011;21083;50.898;4.902;2023-05-10T11:33:14;5.10;;;2.00;;
20653;SDS011;21083;50.898;4.902;2023-05-10T11:35:42;8.77;;;2.65;;
20653;SDS011;21083;50.898;4.902;2023-05-10T11:38:11;4.07;;;1.67;;
20653;SDS011;21083;50.898;4.902;2023-05-10T11:40:39;4.97;;;1.90;;
20653;SDS011;21083;50.898;4.902;2023-05-10T11:43:08;4.47;;;1.67;;
20653;SDS011;21083;50.898;4.902;2023-05-10T11:45:36;3.25;;;1.50;;
20653;SDS011;21083;50.898;4.902;2023-05-10T11:48:04;7.05;;;1.55;;
20653;SDS011;21083;50.898;4.902;2023-05-10T11:50:31;4.03;;;1.85;;
20653;SDS011;21083;50.898;4.902;2023-05-10T11:52:58;4.20;;;1.50;;
20653;SDS011;21083;50.898;4.902;2023-05-10T11:55:27;4.25;;;1.48;;
20653;SDS011;21083;50.898;4.902;2023-05-10T11:57:55;3.92;;;1.50;;
20653;SDS011;21083;50.898;4.902;2023-05-10T12:00:27;3.80;;;1.55;;
20653;SDS011;21083;50.898;4.902;2023-05-10T12:02:55;2.15;;;1.10;;
20653;SDS011;21083;50.898;4.902;2023-05-10T12:05:22;3.15;;;1.60;;
20653;SDS011;21083;50.898;4.902;2023-05-10T12:07:50;3.80;;;1.35;;
20653;SDS011;21083;50.898;4.902;2023-05-10T12:10:17;5.80;;;1.38;;
20653;SDS011;21083;50.898;4.902;2023-05-10T12:12:53;4.72;;;1.75;;
20653;SDS011;21083;50.898;4.902;2023-05-10T12:15:20;2.22;;;1.10;;
20653;SDS011;21083;50.898;4.902;2023-05-10T12:17:49;12.52;;;1.50;;
20653;SDS011;21083;50.898;4.902;2023-05-10T12:20:17;1.95;;;1.00;;
20653;SDS011;21083;50.898;4.902;2023-05-10T12:22:46;3.00;;;1.40;;
20653;SDS011;21083;50.898;4.902;2023-05-10T12:25:15;2.47;;;1.02;;
20653;SDS011;21083;50.898;4.902;2023-05-10T12:27:47;3.15;;;1.27;;
20653;SDS011;21083;50.898;4.902;2023-05-10T12:30:21;2.53;;;1.00;;
20653;SDS011;21083;50.898;4.902;2023-05-10T12:32:50;2.00;;;0.90;;
20653;SDS011;21083;50.898;4.902;2023-05-10T12:35:17;5.25;;;1.08;;
20653;SDS011;21083;50.898;4.902;2023-05-10T12:37:47;1.95;;;0.85;;
20653;SDS011;21083;50.898;4.902;2023-05-10T12:40:14;3.22;;;1.00;;
20653;SDS011;21083;50.898;4.902;2023-05-10T12:42:41;1.90;;;1.00;;
20653;SDS011;21083;50.898;4.902;2023-05-10T12:45:10;8.20;;;1.00;;
20653;SDS011;21083;50.898;4.902;2023-05-10T12:47:39;5.63;;;1.05;;
20653;SDS011;21083;50.898;4.902;2023-05-10T12:50:06;2.92;;;1.08;;
20653;SDS011;21083;50.898;4.902;2023-05-10T12:52:33;3.17;;;1.10;;
20653;SDS011;21083;50.898;4.902;2023-05-10T12:55:00;3.42;;;1.42;;
20653;SDS011;21083;50.898;4.902;2023-05-10T12:57:28;3.05;;;1.48;;
20653;SDS011;21083;50.898;4.902;2023-05-10T12:59:55;3.63;;;1.17;;
20653;SDS011;21083;50.898;4.902;2023-05-10T13:02:22;6.05;;;1.60;;
20653;SDS011;21083;50.898;4.902;2023-05-10T13:04:51;4.55;;;1.50;;
20653;SDS011;21083;50.898;4.902;2023-05-10T13:07:18;4.63;;;1.60;;
20653;SDS011;21083;50.898;4.902;2023-05-10T13:09:45;1.98;;;1.10;;
20653;SDS011;21083;50.898;4.902;2023-05-10T13:12:12;4.75;;;1.70;;
20653;SDS011;21083;50.898;4.902;2023-05-10T13:14:39;3.78;;;1.60;;
20653;SDS011;21083;50.898;4.902;2023-05-10T13:17:06;6.25;;;1.95;;
20653;SDS011;21083;50.898;4.902;2023-05-10T13:19:33;2.95;;;1.42;;
20653;SDS011;21083;50.898;4.902;2023-05-10T13:22:02;5.07;;;1.88;;
20653;SDS011;21083;50.898;4.902;2023-05-10T13:24:29;5.82;;;2.03;;
20653;SDS011;21083;50.898;4.902;2023-05-10T13:26:56;5.35;;;2.08;;
20653;SDS011;21083;50.898;4.902;2023-05-10T13:29:23;4.20;;;1.67;;
20653;SDS011;21083;50.898;4.902;2023-05-10T13:31:50;6.50;;;2.28;;
20653;SDS011;21083;50.898;4.902;2023-05-10T13:34:17;4.63;;;1.60;;
20653;SDS011;21083;50.898;4.902;2023-05-10T13:36:46;4.60;;;1.30;;
20653;SDS011;21083;50.898;4.902;2023-05-10T13:39:15;3.42;;;1.40;;
20653;SDS011;21083;50.898;4.902;2023-05-10T13:41:42;2.67;;;1.40;;
20653;SDS011;21083;50.898;4.902;2023-05-10T13:44:11;5.55;;;1.60;;
20653;SDS011;21083;50.898;4.902;2023-05-10T13:46:38;3.63;;;1.70;;
20653;SDS011;21083;50.898;4.902;2023-05-10T13:49:05;4.07;;;1.70;;
20653;SDS011;21083;50.898;4.902;2023-05-10T13:51:33;4.80;;;1.60;;
20653;SDS011;21083;50.898;4.902;2023-05-10T13:54:00;3.00;;;1.38;;
20653;SDS011;21083;50.898;4.902;2023-05-10T13:56:29;6.30;;;1.83;;
20653;SDS011;21083;50.898;4.902;2023-05-10T13:58:56;3.53;;;1.58;;
20653;SDS011;21083;50.898;4.902;2023-05-10T14:01:23;4.25;;;1.48;;
20653;SDS011;21083;50.898;4.902;2023-05-10T14:03:50;5.68;;;1.33;;
20653;SDS011;21083;50.898;4.902;2023-05-10T14:06:17;3.95;;;1.65;;
20653;SDS011;21083;50.898;4.902;2023-05-10T14:08:44;3.38;;;1.58;;
20653;SDS011;21083;50.898;4.902;2023-05-10T14:11:11;4.13;;;1.90;;
20653;SDS011;21083;50.898;4.902;2023-05-10T14:13:40;4.22;;;1.85;;
20653;SDS011;21083;50.898;4.902;2023-05-10T14:16:07;4.32;;;1.77;;
20653;SDS011;21083;50.898;4.902;2023-05-10T14:18:34;4.63;;;2.17;;
20653;SDS011;21083;50.898;4.902;2023-05-10T14:21:01;3.88;;;1.90;;
20653;SDS011;21083;50.898;4.902;2023-05-10T14:23:29;5.97;;;2.20;;
20653;SDS011;21083;50.898;4.902;2023-05-10T14:25:56;4.50;;;2.38;;
20653;SDS011;21083;50.898;4.902;2023-05-10T14:28:23;5.35;;;2.30;;
20653;SDS011;21083;50.898;4.902;2023-05-10T14:30:51;7.20;;;2.05;;
20653;SDS011;21083;50.898;4.902;2023-05-10T14:33:18;5.72;;;2.33;;
20653;SDS011;21083;50.898;4.902;2023-05-10T14:35:45;6.80;;;2.17;;
20653;SDS011;21083;50.898;4.902;2023-05-10T14:38:13;4.72;;;2.17;;
20653;SDS011;21083;50.898;4.902;2023-05-10T14:40:40;5.55;;;2.30;;
20653;SDS011;21083;50.898;4.902;2023-05-10T14:43:07;5.25;;;2.25;;
20653;SDS011;21083;50.898;4.902;2023-05-10T14:45:34;5.60;;;2.55;;
20653;SDS011;21083;50.898;4.902;2023-05-10T14:48:03;6.18;;;2.70;;